createdAt,value
2019-02-09T00:00:44.073Z,0.00
2019-02-09T00:01:44.105Z,0.00
2019-02-09T00:02:44.128Z,0.00
2019-02-09T00:03:44.158Z,0.00
2019-02-09T00:04:44.192Z,0.00
2019-02-09T00:05:44.218Z,0.00
2019-02-09T00:06:44.248Z,0.00
2019-02-09T00:07:44.273Z,0.00
2019-02-09T00:08:44.302Z,0.00
2019-02-09T00:09:44.330Z,0.00
2019-02-09T00:10:44.390Z,0.00
2019-02-09T00:11:44.388Z,0.00
2019-02-09T00:12:44.416Z,0.00
2019-02-09T00:13:44.446Z,0.00
2019-02-09T00:14:44.473Z,0.00
2019-02-09T00:15:44.501Z,0.00
2019-02-09T00:16:44.531Z,0.00
2019-02-09T00:17:44.560Z,0.00
2019-02-09T00:18:44.587Z,0.00
2019-02-09T00:19:44.615Z,0.00
2019-02-09T00:20:44.644Z,0.00
2019-02-09T00:21:44.674Z,0.00
2019-02-09T00:22:44.702Z,0.00
2019-02-09T00:23:44.731Z,0.00
2019-02-09T00:24:44.760Z,0.00
2019-02-09T00:25:44.788Z,0.00
2019-02-09T00:26:44.816Z,0.00
2019-02-09T00:27:44.846Z,0.00
2019-02-09T00:28:44.874Z,0.00
2019-02-09T00:29:46.246Z,0.00
2019-02-09T00:30:44.931Z,0.00
2019-02-09T00:31:44.960Z,0.00
2019-02-09T00:32:44.991Z,0.00
2019-02-09T00:33:45.019Z,0.00
2019-02-09T00:34:45.047Z,0.00
2019-02-09T00:35:45.077Z,0.00
2019-02-09T00:36:45.104Z,0.00
2019-02-09T00:37:45.132Z,0.00
2019-02-09T00:38:45.161Z,0.00
2019-02-09T00:39:45.190Z,0.00
2019-02-09T00:40:45.219Z,0.00
2019-02-09T00:41:45.246Z,0.00
2019-02-09T00:42:45.274Z,0.00
2019-02-09T00:43:45.303Z,0.00
2019-02-09T00:44:45.331Z,0.00
2019-02-09T00:45:45.362Z,0.00
2019-02-09T00:46:45.390Z,0.00
2019-02-09T00:47:45.419Z,0.00
2019-02-09T00:48:45.449Z,0.00
2019-02-09T00:49:45.477Z,0.00
2019-02-09T00:50:45.507Z,0.00
2019-02-09T00:51:45.534Z,0.00
2019-02-09T00:52:45.562Z,0.00
2019-02-09T00:53:45.591Z,0.00
2019-02-09T00:54:45.619Z,0.00
2019-02-09T00:55:45.647Z,0.00
2019-02-09T00:56:45.676Z,0.00
2019-02-09T00:57:45.708Z,0.00
2019-02-09T00:58:45.735Z,0.00
2019-02-09T00:59:45.762Z,0.00
2019-02-09T01:00:45.792Z,0.00
2019-02-09T01:01:45.823Z,0.00
2019-02-09T01:02:45.849Z,0.00
2019-02-09T01:03:45.877Z,0.00
2019-02-09T01:04:45.906Z,0.00
2019-02-09T01:05:45.937Z,0.00
2019-02-09T01:06:45.963Z,0.00
2019-02-09T01:07:45.991Z,0.00
2019-02-09T01:08:46.020Z,0.00
2019-02-09T01:09:46.048Z,0.00
2019-02-09T01:10:46.081Z,0.00
2019-02-09T01:11:46.106Z,0.00
2019-02-09T01:12:46.136Z,0.00
2019-02-09T01:13:46.166Z,0.00
2019-02-09T01:14:46.192Z,0.00
2019-02-09T01:15:46.221Z,0.00
2019-02-09T01:16:46.252Z,0.00
2019-02-09T01:17:46.278Z,0.00
2019-02-09T01:18:46.309Z,0.00
2019-02-09T01:19:46.335Z,0.00
2019-02-09T01:20:46.387Z,0.00
2019-02-09T01:21:46.393Z,0.00
2019-02-09T01:22:46.420Z,0.00
2019-02-09T01:23:46.451Z,0.00
2019-02-09T01:24:46.480Z,0.00
2019-02-09T01:25:46.507Z,0.00
2019-02-09T01:26:46.536Z,0.00
2019-02-09T01:27:46.566Z,0.00
2019-02-09T01:28:46.594Z,0.00
2019-02-09T01:29:46.622Z,0.00
2019-02-09T01:30:46.651Z,0.00
2019-02-09T01:31:46.680Z,0.00
2019-02-09T01:32:46.709Z,0.00
2019-02-09T01:33:46.737Z,0.00
2019-02-09T01:34:46.766Z,0.00
2019-02-09T01:35:46.797Z,0.00
2019-02-09T01:36:46.822Z,0.00
2019-02-09T01:37:46.853Z,0.00
2019-02-09T01:38:46.883Z,0.00
2019-02-09T01:39:46.910Z,0.00
2019-02-09T01:40:46.938Z,0.00
2019-02-09T01:41:46.967Z,0.00
2019-02-09T01:42:46.995Z,0.00
2019-02-09T01:43:47.023Z,0.00
2019-02-09T01:44:47.053Z,0.00
2019-02-09T01:45:47.080Z,0.00
2019-02-09T01:46:47.109Z,0.00
2019-02-09T01:47:47.143Z,0.00
2019-02-09T01:48:47.166Z,0.00
2019-02-09T01:49:47.197Z,0.00
2019-02-09T01:50:47.227Z,0.00
2019-02-09T01:51:47.253Z,0.00
2019-02-09T01:52:47.283Z,0.00
2019-02-09T01:53:47.312Z,0.00
2019-02-09T01:54:47.340Z,0.00
2019-02-09T01:55:47.368Z,0.00
2019-02-09T01:56:47.400Z,0.00
2019-02-09T01:57:47.426Z,0.00
2019-02-09T01:58:47.455Z,0.00
2019-02-09T01:59:47.483Z,0.00
2019-02-09T02:00:47.513Z,0.00
2019-02-09T02:01:47.543Z,0.00
2019-02-09T02:02:47.568Z,0.00
2019-02-09T02:03:47.599Z,0.00
2019-02-09T02:04:47.627Z,0.00
2019-02-09T02:05:47.655Z,0.00
2019-02-09T02:06:47.684Z,0.00
2019-02-09T02:07:47.713Z,0.00
2019-02-09T02:08:47.742Z,0.00
2019-02-09T02:09:47.775Z,0.00
2019-02-09T02:10:47.800Z,0.00
2019-02-09T02:11:47.828Z,0.00
2019-02-09T02:12:47.860Z,0.00
2019-02-09T02:13:47.887Z,0.00
2019-02-09T02:14:47.915Z,0.00
2019-02-09T02:15:47.943Z,0.00
2019-02-09T02:16:47.973Z,0.00
2019-02-09T02:17:48.002Z,0.00
2019-02-09T02:18:48.030Z,0.00
2019-02-09T02:19:48.057Z,0.00
2019-02-09T02:20:48.086Z,0.00
2019-02-09T02:21:48.115Z,0.00
2019-02-09T02:22:48.144Z,0.00
2019-02-09T02:23:48.173Z,0.00
2019-02-09T02:24:48.201Z,0.00
2019-02-09T02:25:48.231Z,0.00
2019-02-09T02:26:48.258Z,0.00
2019-02-09T02:27:48.288Z,0.00
2019-02-09T02:28:48.320Z,0.00
2019-02-09T02:29:48.346Z,0.00
2019-02-09T02:30:48.374Z,0.00
2019-02-09T02:31:48.402Z,0.00
2019-02-09T02:32:48.432Z,0.00
2019-02-09T02:33:48.460Z,0.00
2019-02-09T02:34:48.490Z,0.00
2019-02-09T02:35:48.516Z,0.00
2019-02-09T02:36:48.545Z,0.00
2019-02-09T02:37:48.576Z,0.00
2019-02-09T02:38:48.602Z,0.00
2019-02-09T02:39:48.631Z,0.00
2019-02-09T02:40:48.660Z,0.00
2019-02-09T02:41:48.689Z,0.00
2019-02-09T02:42:48.718Z,0.00
2019-02-09T02:43:48.746Z,0.00
2019-02-09T02:44:48.775Z,0.00
2019-02-09T02:45:48.803Z,0.00
2019-02-09T02:46:48.831Z,0.00
2019-02-09T02:47:48.860Z,0.00
2019-02-09T02:48:48.889Z,0.00
2019-02-09T02:49:48.920Z,0.00
2019-02-09T02:50:48.946Z,0.00
2019-02-09T02:51:48.974Z,0.00
2019-02-09T02:52:49.007Z,0.00
2019-02-09T02:53:49.032Z,0.00
2019-02-09T02:54:49.061Z,0.00
2019-02-09T02:55:49.092Z,0.00
2019-02-09T02:56:49.118Z,0.00
2019-02-09T02:57:49.149Z,0.00
2019-02-09T02:58:49.174Z,0.00
2019-02-09T02:59:49.204Z,0.00
2019-02-09T03:00:49.231Z,0.00
2019-02-09T03:01:49.263Z,0.00
2019-02-09T03:02:49.290Z,0.00
2019-02-09T03:03:49.317Z,0.00
2019-02-09T03:04:49.346Z,0.00
2019-02-09T03:05:49.376Z,0.00
2019-02-09T03:06:49.408Z,0.00
2019-02-09T03:07:49.434Z,0.00
2019-02-09T03:08:49.460Z,0.00
2019-02-09T03:09:49.500Z,0.00
2019-02-09T03:10:49.517Z,0.00
2019-02-09T03:11:49.544Z,0.00
2019-02-09T03:12:49.574Z,0.00
2019-02-09T03:13:49.604Z,0.00
2019-02-09T03:14:49.630Z,0.00
2019-02-09T03:15:49.661Z,0.00
2019-02-09T03:16:49.690Z,0.00
2019-02-09T03:17:49.719Z,0.00
2019-02-09T03:18:49.746Z,0.00
2019-02-09T03:19:49.774Z,0.00
2019-02-09T03:20:49.803Z,0.00
2019-02-09T03:21:49.832Z,0.00
2019-02-09T03:22:49.860Z,0.00
2019-02-09T03:23:49.980Z,0.00
2019-02-09T03:24:49.921Z,0.00
2019-02-09T03:25:49.945Z,0.00
2019-02-09T03:26:49.973Z,0.00
2019-02-09T03:27:50.009Z,0.00
2019-02-09T03:28:50.031Z,0.00
2019-02-09T03:29:50.061Z,0.00
2019-02-09T03:30:50.090Z,0.00
2019-02-09T03:31:50.116Z,0.00
2019-02-09T03:32:50.189Z,0.00
2019-02-09T03:33:50.182Z,0.00
2019-02-09T03:34:50.201Z,0.00
2019-02-09T03:35:50.232Z,0.00
2019-02-09T03:36:50.261Z,0.00
2019-02-09T03:37:50.287Z,0.00
2019-02-09T03:38:50.316Z,0.00
2019-02-09T03:39:50.348Z,0.00
2019-02-09T03:40:50.374Z,0.00
2019-02-09T03:41:50.402Z,0.00
2019-02-09T03:42:50.432Z,0.00
2019-02-09T03:43:50.459Z,0.00
2019-02-09T03:44:50.489Z,0.00
2019-02-09T03:45:50.519Z,0.00
2019-02-09T03:46:50.549Z,0.00
2019-02-09T03:47:50.576Z,0.00
2019-02-09T03:48:50.606Z,0.00
2019-02-09T03:49:50.633Z,0.00
2019-02-09T03:50:50.662Z,0.00
2019-02-09T03:51:50.689Z,0.00
2019-02-09T03:52:50.718Z,0.00
2019-02-09T03:53:50.753Z,0.00
2019-02-09T03:54:50.776Z,0.00
2019-02-09T03:55:50.805Z,0.00
2019-02-09T03:56:50.838Z,0.00
2019-02-09T03:57:50.862Z,0.00
2019-02-09T03:58:50.891Z,0.00
2019-02-09T03:59:50.922Z,0.00
2019-02-09T04:00:55.429Z,0.00
2019-02-09T04:01:50.977Z,0.00
2019-02-09T04:02:51.007Z,0.00
2019-02-09T04:03:51.034Z,0.00
2019-02-09T04:04:51.067Z,0.00
2019-02-09T04:05:51.093Z,0.00
2019-02-09T04:06:51.122Z,0.00
2019-02-09T04:07:51.150Z,0.00
2019-02-09T04:08:51.179Z,0.00
2019-02-09T04:09:51.208Z,0.00
2019-02-09T04:10:51.236Z,0.00
2019-02-09T04:11:51.266Z,0.00
2019-02-09T04:12:51.297Z,0.00
2019-02-09T04:13:51.332Z,0.00
2019-02-09T04:14:51.352Z,0.00
2019-02-09T04:15:51.382Z,0.00
2019-02-09T04:16:51.410Z,0.00
2019-02-09T04:17:51.440Z,0.00
2019-02-09T04:18:51.468Z,0.00
2019-02-09T04:19:51.498Z,0.00
2019-02-09T04:20:51.533Z,0.00
2019-02-09T04:21:51.556Z,0.00
2019-02-09T04:22:51.591Z,0.00
2019-02-09T04:23:51.613Z,0.00
2019-02-09T04:24:51.643Z,0.00
2019-02-09T04:25:51.691Z,0.00
2019-02-09T04:26:51.699Z,0.00
2019-02-09T04:27:51.733Z,0.00
2019-02-09T04:28:51.757Z,0.00
2019-02-09T04:29:51.787Z,0.00
2019-02-09T04:30:51.817Z,0.00
2019-02-09T04:31:51.845Z,0.00
2019-02-09T04:32:51.888Z,0.00
2019-02-09T04:33:51.920Z,0.00
2019-02-09T04:34:51.932Z,0.00
2019-02-09T04:35:51.960Z,0.00
2019-02-09T04:36:51.990Z,0.00
2019-02-09T04:37:52.022Z,0.00
2019-02-09T04:38:52.046Z,0.00
2019-02-09T04:39:52.079Z,0.00
2019-02-09T04:40:52.106Z,0.00
2019-02-09T04:41:52.137Z,0.00
2019-02-09T04:42:52.165Z,0.00
2019-02-09T04:43:52.194Z,0.00
2019-02-09T04:44:52.223Z,0.00
2019-02-09T04:45:52.256Z,0.00
2019-02-09T04:46:52.279Z,0.00
2019-02-09T04:47:52.309Z,0.00
2019-02-09T04:48:52.338Z,0.00
2019-02-09T04:49:52.372Z,0.00
2019-02-09T04:50:52.397Z,0.00
2019-02-09T04:51:52.426Z,0.00
2019-02-09T04:52:52.456Z,0.00
2019-02-09T04:53:52.490Z,0.00
2019-02-09T04:54:52.513Z,0.00
2019-02-09T04:55:52.545Z,0.00
2019-02-09T04:56:52.571Z,0.00
2019-02-09T04:57:52.601Z,0.00
2019-02-09T04:58:52.628Z,0.00
2019-02-09T04:59:52.661Z,0.00
2019-02-09T05:00:52.689Z,0.00
2019-02-09T05:01:52.721Z,0.00
2019-02-09T05:02:52.746Z,0.00
2019-02-09T05:03:52.777Z,0.00
2019-02-09T05:04:52.804Z,0.00
2019-02-09T05:05:52.834Z,0.00
2019-02-09T05:06:52.861Z,0.00
2019-02-09T05:07:52.890Z,0.00
2019-02-09T05:08:52.922Z,0.00
2019-02-09T05:09:52.950Z,0.00
2019-02-09T05:10:53.019Z,0.00
2019-02-09T05:11:53.009Z,0.00
2019-02-09T05:12:53.037Z,0.00
2019-02-09T05:13:53.067Z,0.00
2019-02-09T05:14:53.094Z,0.00
2019-02-09T05:15:53.123Z,0.00
2019-02-09T05:16:53.158Z,0.00
2019-02-09T05:17:53.185Z,0.00
2019-02-09T05:18:53.212Z,0.00
2019-02-09T05:19:53.243Z,0.00
2019-02-09T05:20:53.271Z,0.00
2019-02-09T05:21:53.301Z,0.00
2019-02-09T05:22:53.329Z,0.00
2019-02-09T05:23:53.358Z,0.00
2019-02-09T05:24:53.386Z,0.00
2019-02-09T05:25:53.415Z,0.00
2019-02-09T05:26:53.446Z,0.00
2019-02-09T05:27:53.473Z,0.00
2019-02-09T05:28:53.523Z,0.00
2019-02-09T05:29:53.540Z,0.00
2019-02-09T05:30:53.564Z,0.00
2019-02-09T05:31:53.591Z,0.00
2019-02-09T05:32:53.620Z,0.00
2019-02-09T05:33:53.651Z,0.00
2019-02-09T05:34:53.678Z,0.00
2019-02-09T05:35:53.708Z,0.00
2019-02-09T05:36:53.737Z,0.00
2019-02-09T05:37:53.779Z,0.00
2019-02-09T05:38:53.795Z,0.00
2019-02-09T05:39:53.824Z,0.00
2019-02-09T05:40:53.854Z,0.00
2019-02-09T05:41:53.883Z,0.00
2019-02-09T05:42:53.914Z,0.00
2019-02-09T05:43:53.941Z,0.00
2019-02-09T05:44:53.973Z,0.00
2019-02-09T05:45:54.000Z,0.00
2019-02-09T05:46:54.027Z,0.00
2019-02-09T05:47:54.058Z,0.00
2019-02-09T05:48:54.087Z,0.00
2019-02-09T05:49:54.117Z,0.00
2019-02-09T05:50:54.145Z,0.00
2019-02-09T05:51:54.175Z,0.00
2019-02-09T05:52:54.204Z,0.00
2019-02-09T05:53:54.251Z,0.00
2019-02-09T05:54:54.261Z,0.00
2019-02-09T05:55:54.291Z,0.00
2019-02-09T05:56:54.319Z,0.00
2019-02-09T05:57:54.349Z,0.00
2019-02-09T05:58:54.379Z,0.00
2019-02-09T05:59:54.410Z,0.00
2019-02-09T06:00:54.438Z,0.00
2019-02-09T06:01:54.476Z,0.00
2019-02-09T06:02:54.494Z,0.00
2019-02-09T06:03:54.524Z,0.00
2019-02-09T06:04:54.563Z,0.00
2019-02-09T06:05:54.585Z,0.00
2019-02-09T06:06:54.612Z,0.00
2019-02-09T06:07:54.645Z,0.00
2019-02-09T06:08:54.673Z,0.00
2019-02-09T06:09:54.701Z,0.00
2019-02-09T06:10:54.730Z,0.00
2019-02-09T06:11:54.781Z,0.00
2019-02-09T06:12:54.787Z,0.00
2019-02-09T06:13:54.817Z,0.00
2019-02-09T06:14:54.846Z,0.00
2019-02-09T06:15:54.877Z,0.00
2019-02-09T06:16:54.904Z,0.00
2019-02-09T06:17:54.933Z,0.00
2019-02-09T06:18:54.963Z,0.00
2019-02-09T06:19:54.991Z,0.00
2019-02-09T06:20:55.021Z,0.00
2019-02-09T06:21:55.050Z,0.00
2019-02-09T06:22:55.078Z,0.00
2019-02-09T06:23:55.108Z,0.00
2019-02-09T06:24:55.138Z,0.00
2019-02-09T06:25:55.212Z,0.00
2019-02-09T06:26:55.195Z,0.00
2019-02-09T06:27:55.227Z,0.00
2019-02-09T06:28:55.258Z,0.00
2019-02-09T06:29:55.286Z,0.00
2019-02-09T06:30:55.320Z,0.00
2019-02-09T06:31:55.342Z,0.00
2019-02-09T06:32:55.371Z,0.00
2019-02-09T06:33:55.404Z,0.00
2019-02-09T06:34:55.430Z,0.00
2019-02-09T06:35:55.467Z,0.00
2019-02-09T06:36:55.487Z,0.00
2019-02-09T06:37:55.516Z,0.00
2019-02-09T06:38:55.544Z,0.00
2019-02-09T06:39:55.573Z,0.00
2019-02-09T06:40:55.603Z,0.00
2019-02-09T06:41:55.633Z,0.00
2019-02-09T06:42:55.662Z,0.00
2019-02-09T06:43:55.690Z,0.00
2019-02-09T06:44:55.719Z,0.00
2019-02-09T06:45:55.750Z,0.00
2019-02-09T06:46:55.779Z,0.00
2019-02-09T06:47:55.807Z,0.00
2019-02-09T06:48:55.836Z,0.00
2019-02-09T06:49:55.863Z,0.00
2019-02-09T06:50:55.895Z,0.00
2019-02-09T06:51:55.922Z,0.00
2019-02-09T06:52:55.952Z,0.00
2019-02-09T06:53:55.980Z,0.00
2019-02-09T06:54:56.009Z,0.00
2019-02-09T06:55:56.038Z,0.00
2019-02-09T06:56:56.066Z,0.00
2019-02-09T06:57:56.099Z,0.00
2019-02-09T06:58:56.124Z,0.00
2019-02-09T06:59:56.153Z,0.00
2019-02-09T07:00:56.183Z,0.00
2019-02-09T07:01:56.211Z,0.00
2019-02-09T07:02:56.243Z,0.00
2019-02-09T07:03:56.270Z,0.00
2019-02-09T07:04:56.302Z,0.00
2019-02-09T07:05:56.327Z,0.00
2019-02-09T07:06:56.355Z,0.00
2019-02-09T07:07:56.386Z,0.00
2019-02-09T07:08:56.414Z,0.00
2019-02-09T07:09:56.444Z,0.00
2019-02-09T07:10:56.475Z,0.00
2019-02-09T07:11:56.500Z,0.00
2019-02-09T07:12:56.531Z,0.00
2019-02-09T07:13:56.561Z,0.00
2019-02-09T07:14:56.614Z,0.00
2019-02-09T07:15:56.618Z,0.00
2019-02-09T07:16:56.645Z,0.00
2019-02-09T07:17:56.675Z,0.00
2019-02-09T07:18:56.704Z,0.00
2019-02-09T07:19:56.732Z,0.00
2019-02-09T07:20:56.761Z,0.00
2019-02-09T07:21:56.791Z,0.00
2019-02-09T07:22:56.820Z,0.00
2019-02-09T07:23:56.849Z,0.00
2019-02-09T07:24:56.881Z,0.00
2019-02-09T07:25:56.912Z,0.00
2019-02-09T07:26:56.935Z,0.00
2019-02-09T07:27:56.969Z,0.00
2019-02-09T07:28:56.993Z,0.00
2019-02-09T07:29:57.024Z,0.00
2019-02-09T07:30:57.051Z,0.00
2019-02-09T07:31:57.081Z,0.00
2019-02-09T07:32:57.109Z,0.00
2019-02-09T07:33:57.139Z,0.00
2019-02-09T07:34:57.167Z,0.00
2019-02-09T07:35:57.198Z,0.00
2019-02-09T07:36:57.226Z,0.00
2019-02-09T07:37:57.255Z,0.00
2019-02-09T07:38:57.284Z,0.00
2019-02-09T07:39:57.313Z,0.00
2019-02-09T07:40:57.341Z,0.00
2019-02-09T07:41:57.369Z,0.00
2019-02-09T07:42:57.451Z,0.00
2019-02-09T07:43:57.426Z,0.00
2019-02-09T07:44:57.457Z,0.00
2019-02-09T07:45:57.485Z,0.00
2019-02-09T07:46:57.514Z,0.00
2019-02-09T07:47:57.543Z,0.00
2019-02-09T07:48:57.576Z,0.00
2019-02-09T07:49:57.601Z,0.00
2019-02-09T07:50:57.640Z,0.00
2019-02-09T07:51:57.659Z,0.00
2019-02-09T07:52:57.693Z,0.00
2019-02-09T07:53:57.717Z,0.00
2019-02-09T07:54:57.746Z,0.00
2019-02-09T07:55:57.775Z,0.00
2019-02-09T07:56:57.805Z,0.00
2019-02-09T07:57:57.833Z,0.00
2019-02-09T07:58:57.865Z,0.00
2019-02-09T07:59:57.891Z,0.00
2019-02-09T08:00:57.919Z,0.00
2019-02-09T08:02:04.405Z,0.00
2019-02-09T08:02:57.978Z,0.00
2019-02-09T08:03:58.005Z,0.00
2019-02-09T08:04:58.039Z,0.00
2019-02-09T08:05:58.064Z,0.00
2019-02-09T08:06:58.092Z,0.00
2019-02-09T08:07:58.121Z,0.00
2019-02-09T08:08:58.151Z,0.00
2019-02-09T08:09:58.180Z,0.00
2019-02-09T08:10:58.206Z,0.00
2019-02-09T08:11:58.236Z,0.00
2019-02-09T08:12:58.266Z,0.00
2019-02-09T08:13:58.294Z,0.00
2019-02-09T08:14:58.322Z,0.00
2019-02-09T08:15:58.351Z,0.00
2019-02-09T08:16:58.382Z,0.00
2019-02-09T08:17:58.413Z,0.00
2019-02-09T08:18:58.440Z,0.00
2019-02-09T08:19:58.470Z,0.00
2019-02-09T08:20:58.499Z,5.63
2019-02-09T08:21:58.554Z,5.63
2019-02-09T08:22:58.555Z,11.25
2019-02-09T08:23:58.584Z,11.25
2019-02-09T08:24:58.612Z,11.25
2019-02-09T08:25:58.645Z,11.25
2019-02-09T08:26:58.670Z,11.25
2019-02-09T08:27:58.699Z,11.25
2019-02-09T08:28:58.730Z,5.63
2019-02-09T08:29:58.761Z,5.63
2019-02-09T08:30:58.788Z,11.25
2019-02-09T08:31:58.815Z,11.25
2019-02-09T08:32:58.845Z,11.25
2019-02-09T08:33:58.873Z,11.25
2019-02-09T08:34:58.906Z,11.25
2019-02-09T08:35:58.930Z,11.25
2019-02-09T08:36:58.959Z,11.25
2019-02-09T08:37:58.994Z,11.25
2019-02-09T08:38:59.026Z,11.25
2019-02-09T08:39:59.059Z,11.25
2019-02-09T08:40:59.076Z,11.25
2019-02-09T08:41:59.106Z,11.25
2019-02-09T08:42:59.134Z,11.25
2019-02-09T08:43:59.163Z,5.63
2019-02-09T08:44:59.193Z,5.63
2019-02-09T08:45:59.223Z,5.63
2019-02-09T08:46:59.250Z,5.63
2019-02-09T08:47:59.280Z,5.63
2019-02-09T08:48:59.310Z,5.63
2019-02-09T08:49:59.339Z,5.63
2019-02-09T08:50:59.367Z,5.63
2019-02-09T08:51:59.396Z,5.63
2019-02-09T08:52:59.429Z,5.63
2019-02-09T08:53:59.457Z,5.63
2019-02-09T08:54:59.483Z,5.63
2019-02-09T08:55:59.522Z,5.63
2019-02-09T08:56:59.543Z,11.25
2019-02-09T08:57:59.617Z,11.25
2019-02-09T08:58:59.600Z,11.25
2019-02-09T08:59:59.630Z,11.25
2019-02-09T09:00:59.657Z,16.88
2019-02-09T09:01:59.688Z,16.88
2019-02-09T09:02:59.721Z,22.50
2019-02-09T09:03:59.749Z,22.50
2019-02-09T09:04:59.775Z,28.13
2019-02-09T09:05:59.805Z,28.13
2019-02-09T09:06:59.838Z,28.13
2019-02-09T09:07:59.862Z,33.75
2019-02-09T09:08:59.893Z,33.75
2019-02-09T09:09:59.924Z,33.75
2019-02-09T09:11:01.394Z,33.75
2019-02-09T09:11:59.979Z,33.75
2019-02-09T09:13:00.010Z,39.38
2019-02-09T09:14:00.037Z,39.38
2019-02-09T09:15:00.195Z,39.38
2019-02-09T09:16:00.098Z,39.38
2019-02-09T09:17:00.132Z,45.00
2019-02-09T09:18:00.163Z,45.00
2019-02-09T09:19:00.200Z,45.00
2019-02-09T09:20:00.255Z,39.38
2019-02-09T09:21:00.269Z,39.38
2019-02-09T09:22:00.299Z,45.00
2019-02-09T09:23:00.306Z,45.00
2019-02-09T09:24:00.332Z,45.00
2019-02-09T09:25:00.363Z,45.00
2019-02-09T09:26:00.394Z,45.00
2019-02-09T09:27:00.420Z,50.63
2019-02-09T09:28:00.449Z,50.63
2019-02-09T09:29:00.482Z,56.25
2019-02-09T09:30:00.548Z,56.25
2019-02-09T09:31:00.539Z,56.25
2019-02-09T09:32:00.571Z,56.25
2019-02-09T09:33:00.601Z,56.25
2019-02-09T09:34:00.628Z,56.25
2019-02-09T09:35:00.659Z,61.88
2019-02-09T09:36:00.690Z,61.88
2019-02-09T09:37:00.721Z,61.88
2019-02-09T09:38:00.750Z,56.25
2019-02-09T09:39:00.785Z,56.25
2019-02-09T09:40:00.855Z,67.50
2019-02-09T09:41:00.840Z,67.50
2019-02-09T09:42:00.870Z,67.50
2019-02-09T09:43:00.901Z,67.50
2019-02-09T09:44:00.931Z,67.50
2019-02-09T09:45:00.960Z,67.50
2019-02-09T09:46:00.990Z,61.88
2019-02-09T09:47:01.020Z,50.63
2019-02-09T09:48:01.052Z,50.63
2019-02-09T09:49:01.082Z,56.25
2019-02-09T09:50:01.124Z,61.88
2019-02-09T09:51:01.145Z,67.50
2019-02-09T09:52:01.180Z,78.75
2019-02-09T09:53:01.204Z,67.50
2019-02-09T09:54:01.241Z,67.50
2019-02-09T09:55:01.267Z,73.13
2019-02-09T09:56:01.295Z,90.00
2019-02-09T09:57:01.327Z,106.88
2019-02-09T09:58:01.357Z,73.13
2019-02-09T09:59:01.388Z,73.13
2019-02-09T10:00:01.419Z,73.13
2019-02-09T10:01:01.450Z,61.88
2019-02-09T10:02:01.482Z,95.63
2019-02-09T10:03:01.510Z,112.50
2019-02-09T10:04:01.552Z,78.75
2019-02-09T10:05:01.582Z,84.38
2019-02-09T10:06:01.606Z,135.00
2019-02-09T10:07:01.636Z,151.88
2019-02-09T10:08:01.666Z,405.00
2019-02-09T10:09:01.702Z,517.50
2019-02-09T10:10:01.732Z,630.00
2019-02-09T10:11:01.769Z,641.25
2019-02-09T10:12:01.796Z,427.50
2019-02-09T10:13:01.827Z,202.50
2019-02-09T10:14:08.732Z,675.00
2019-02-09T10:15:01.892Z,748.13
2019-02-09T10:16:01.925Z,686.25
2019-02-09T10:17:01.964Z,798.75
2019-02-09T10:18:01.989Z,748.13
2019-02-09T10:19:02.020Z,810.00
2019-02-09T10:20:02.055Z,798.75
2019-02-09T10:21:02.089Z,663.75
2019-02-09T10:22:02.123Z,742.50
2019-02-09T10:23:02.163Z,292.50
2019-02-09T10:24:02.192Z,776.25
2019-02-09T10:25:02.228Z,489.38
2019-02-09T10:26:02.261Z,815.63
2019-02-09T10:27:02.313Z,843.75
2019-02-09T10:28:02.332Z,821.25
2019-02-09T10:29:02.390Z,838.13
2019-02-09T10:30:02.405Z,832.50
2019-02-09T10:31:02.440Z,843.75
2019-02-09T10:32:02.480Z,849.38
2019-02-09T10:33:02.512Z,838.13
2019-02-09T10:34:02.555Z,866.25
2019-02-09T10:35:02.594Z,849.38
2019-02-09T10:36:02.626Z,860.63
2019-02-09T10:37:02.665Z,871.88
2019-02-09T10:38:02.703Z,146.25
2019-02-09T10:39:02.748Z,888.75
2019-02-09T10:40:02.782Z,146.25
2019-02-09T10:41:02.818Z,866.25
2019-02-09T10:42:02.859Z,871.88
2019-02-09T10:43:02.897Z,866.25
2019-02-09T10:44:02.935Z,866.25
2019-02-09T10:45:02.977Z,219.38
2019-02-09T10:46:03.020Z,860.63
2019-02-09T10:47:03.054Z,871.88
2019-02-09T10:48:03.095Z,871.88
2019-02-09T10:49:03.136Z,849.38
2019-02-09T10:50:03.176Z,838.13
2019-02-09T10:51:03.214Z,855.00
2019-02-09T10:52:03.255Z,230.63
2019-02-09T10:53:03.297Z,877.50
2019-02-09T10:54:03.340Z,855.00
2019-02-09T10:55:03.378Z,376.88
2019-02-09T10:56:03.423Z,489.38
2019-02-09T10:57:03.460Z,123.75
2019-02-09T10:58:03.524Z,866.25
2019-02-09T10:59:03.542Z,871.88
2019-02-09T11:00:03.584Z,708.75
2019-02-09T11:01:03.625Z,843.75
2019-02-09T11:02:03.666Z,871.88
2019-02-09T11:03:03.707Z,866.25
2019-02-09T11:04:03.749Z,573.75
2019-02-09T11:05:03.794Z,900.00
2019-02-09T11:06:03.832Z,78.75
2019-02-09T11:07:03.871Z,894.38
2019-02-09T11:08:03.914Z,106.88
2019-02-09T11:09:03.956Z,163.13
2019-02-09T11:10:03.997Z,78.75
2019-02-09T11:11:04.039Z,286.88
2019-02-09T11:12:04.080Z,106.88
2019-02-09T11:13:04.120Z,146.25
2019-02-09T11:14:04.168Z,73.13
2019-02-09T11:15:04.203Z,73.13
2019-02-09T11:16:04.244Z,140.63
2019-02-09T11:17:04.284Z,540.00
2019-02-09T11:18:04.325Z,101.25
2019-02-09T11:19:04.382Z,95.63
2019-02-09T11:20:04.404Z,208.13
2019-02-09T11:21:04.442Z,135.00
2019-02-09T11:22:04.483Z,866.25
2019-02-09T11:23:04.564Z,905.63
2019-02-09T11:24:04.562Z,365.63
2019-02-09T11:25:04.605Z,45.00
2019-02-09T11:26:04.643Z,28.13
2019-02-09T11:27:04.679Z,28.13
2019-02-09T11:28:04.718Z,28.13
2019-02-09T11:29:04.759Z,45.00
2019-02-09T11:30:04.799Z,33.75
2019-02-09T11:31:04.836Z,28.13
2019-02-09T11:32:04.875Z,45.00
2019-02-09T11:33:04.914Z,135.00
2019-02-09T11:34:04.952Z,551.25
2019-02-09T11:35:04.990Z,804.38
2019-02-09T11:36:05.029Z,151.88
2019-02-09T11:37:05.067Z,900.00
2019-02-09T11:38:05.103Z,883.13
2019-02-09T11:39:05.139Z,663.75
2019-02-09T11:40:05.179Z,888.75
2019-02-09T11:41:05.222Z,894.38
2019-02-09T11:42:05.256Z,905.63
2019-02-09T11:43:05.292Z,776.25
2019-02-09T11:44:05.331Z,736.88
2019-02-09T11:45:05.369Z,669.38
2019-02-09T11:46:05.409Z,675.00
2019-02-09T11:47:05.447Z,765.00
2019-02-09T11:48:05.486Z,624.38
2019-02-09T11:49:05.526Z,528.75
2019-02-09T11:50:06.501Z,500.63
2019-02-09T11:51:05.606Z,337.50
2019-02-09T11:52:05.642Z,73.13
2019-02-09T11:53:05.687Z,309.38
2019-02-09T11:54:05.723Z,67.50
2019-02-09T11:55:05.761Z,90.00
2019-02-09T11:56:05.800Z,45.00
2019-02-09T11:57:05.839Z,28.13
2019-02-09T11:58:05.878Z,22.50
2019-02-09T11:59:05.917Z,33.75
2019-02-09T12:00:05.954Z,33.75
2019-02-09T12:01:05.996Z,39.38
2019-02-09T12:02:06.032Z,84.38
2019-02-09T12:03:14.707Z,45.00
2019-02-09T12:04:06.110Z,45.00
2019-02-09T12:05:06.145Z,39.38
2019-02-09T12:06:06.181Z,39.38
2019-02-09T12:07:06.219Z,45.00
2019-02-09T12:08:06.258Z,39.38
2019-02-09T12:09:06.296Z,39.38
2019-02-09T12:10:06.332Z,39.38
2019-02-09T12:11:06.389Z,73.13
2019-02-09T12:12:06.405Z,39.38
2019-02-09T12:13:06.441Z,22.50
2019-02-09T12:14:06.478Z,16.88
2019-02-09T12:15:06.513Z,16.88
2019-02-09T12:16:06.550Z,16.88
2019-02-09T12:17:06.587Z,16.88
2019-02-09T12:18:06.665Z,22.50
2019-02-09T12:19:06.656Z,22.50
2019-02-09T12:20:06.694Z,22.50
2019-02-09T12:21:06.730Z,16.88
2019-02-09T12:22:06.765Z,11.25
2019-02-09T12:23:06.799Z,11.25
2019-02-09T12:24:06.835Z,11.25
2019-02-09T12:25:06.877Z,5.63
2019-02-09T12:26:06.904Z,5.63
2019-02-09T12:27:06.938Z,5.63
2019-02-09T12:28:06.974Z,5.63
2019-02-09T12:29:07.010Z,11.25
2019-02-09T12:30:07.043Z,11.25
2019-02-09T12:31:07.119Z,22.50
2019-02-09T12:32:07.119Z,45.00
2019-02-09T12:33:07.145Z,590.63
2019-02-09T12:34:07.180Z,641.25
2019-02-09T12:35:07.212Z,635.63
2019-02-09T12:36:07.250Z,579.38
2019-02-09T12:37:07.280Z,652.50
2019-02-09T12:38:07.317Z,669.38
2019-02-09T12:39:07.351Z,624.38
2019-02-09T12:40:07.389Z,601.88
2019-02-09T12:41:07.420Z,680.63
2019-02-09T12:42:07.457Z,680.63
2019-02-09T12:43:07.497Z,686.25
2019-02-09T12:44:07.529Z,691.88
2019-02-09T12:45:07.566Z,624.38
2019-02-09T12:46:07.603Z,635.63
2019-02-09T12:47:07.644Z,697.50
2019-02-09T12:48:07.678Z,703.13
2019-02-09T12:49:07.713Z,697.50
2019-02-09T12:50:07.801Z,101.25
2019-02-09T12:51:07.790Z,652.50
2019-02-09T12:52:07.828Z,686.25
2019-02-09T12:53:07.867Z,95.63
2019-02-09T12:54:07.925Z,601.88
2019-02-09T12:55:07.942Z,680.63
2019-02-09T12:56:08.014Z,669.38
2019-02-09T12:57:08.025Z,680.63
2019-02-09T12:58:08.066Z,675.00
2019-02-09T12:59:14.828Z,686.25
2019-02-09T13:00:08.147Z,78.75
2019-02-09T13:01:08.182Z,466.88
2019-02-09T13:02:08.218Z,95.63
2019-02-09T13:03:08.257Z,95.63
2019-02-09T13:04:08.297Z,708.75
2019-02-09T13:05:08.338Z,697.50
2019-02-09T13:06:08.378Z,720.00